Time;durP1;ratioP1;P1;durP2;ratioP2;P2;SDS_P1;SDS_P2;PMS_P1;PMS_P2;Temp;Humidity;BMP_temperature;BMP_pressure;BME280_temperature;BME280_humidity;BME280_pressure;Samples;Min_cycle;Max_cycle;Signal;HPM_P1;HPM_P2
2021/06/16 00:00:47;;;;;;;0.10;0.10;;;;;;;10.97;76.36;101357.53;5052179;28;20398;-92
2021/06/16 00:03:15;;;;;;;0.20;0.20;;;;;;;11.29;74.82;101384.63;5047933;28;20046;-92
2021/06/16 00:06:51;;;;;;;0.20;0.20;;;;;;;11.42;75.82;101415.19;5057721;28;20048;-91
2021/06/16 00:09:19;;;;;;;0.13;0.13;;;;;;;11.27;76.06;101402.31;5045543;28;20052;-93
2021/06/16 00:11:53;;;;;;;0.10;0.10;;;;;;;10.90;74.88;101330.53;5056406;28;20045;-92
2021/06/16 00:14:24;;;;;;;0.10;0.10;;;;;;;11.11;75.25;101379.66;5061020;28;20075;-93
2021/06/16 00:16:53;;;;;;;0.20;0.20;;;;;;;11.07;74.77;101363.00;5053460;28;20053;-91
2021/06/16 00:19:26;;;;;;;0.20;0.20;;;;;;;11.09;75.15;101377.19;5050633;28;20045;-92
2021/06/16 00:21:54;;;;;;;0.30;0.20;;;;;;;11.22;75.18;101386.78;5053626;28;20410;-91
2021/06/16 00:24:26;;;;;;;0.55;0.22;;;;;;;11.30;74.08;101399.88;5056702;28;20048;-93
2021/06/16 00:27:49;;;;;;;0.30;0.25;;;;;;;11.35;74.41;101410.81;5074776;28;20053;-91
2021/06/16 00:31:10;;;;;;;0.45;0.30;;;;;;;11.40;74.32;101410.00;5033963;28;20049;-93
2021/06/16 00:33:42;;;;;;;0.20;0.20;;;;;;;11.15;73.82;101372.59;5038901;28;20064;-89
2021/06/16 00:36:42;;;;;;;0.20;0.20;;;;;;;11.38;73.86;101412.19;5048518;28;20481;-91
2021/06/16 00:39:12;;;;;;;0.20;0.20;;;;;;;11.11;73.50;101368.75;5036097;28;20049;-91
2021/06/16 00:41:45;;;;;;;0.20;0.20;;;;;;;10.93;74.12;101362.69;5047703;28;20409;-90
2021/06/16 00:44:13;;;;;;;0.20;0.20;;;;;;;10.76;74.14;101326.66;5048442;28;20053;-92
2021/06/16 00:46:42;;;;;;;0.20;0.20;;;;;;;11.13;74.30;101386.47;5049044;28;20050;-91
2021/06/16 00:49:12;;;;;;;0.20;0.20;;;;;;;10.91;73.34;101358.56;5045013;28;20049;-92
2021/06/16 00:51:40;;;;;;;0.10;0.10;;;;;;;11.02;74.29;101366.53;5069076;28;20036;-91
2021/06/16 00:55:11;;;;;;;0.10;0.10;;;;;;;11.12;74.54;101384.84;5060906;28;20049;-91
2021/06/16 00:58:08;;;;;;;0.10;0.10;;;;;;;11.21;74.01;101387.84;5047941;28;20791;-91
2021/06/16 01:00:42;;;;;;;0.20;0.20;;;;;;;10.90;74.09;101349.59;5043869;28;20485;-92
2021/06/16 01:03:14;;;;;;;0.17;0.17;;;;;;;10.93;74.40;101372.75;5033458;28;20064;-90
2021/06/16 01:09:35;;;;;;;0.20;0.20;;;;;;;10.70;74.30;101345.69;5044380;28;20389;-91
2021/06/16 01:12:13;;;;;;;0.10;0.10;;;;;;;11.05;74.19;101387.78;5043348;28;20056;-92
2021/06/16 01:15:06;;;;;;;0.10;0.10;;;;;;;11.09;74.17;101393.53;5072807;28;20053;-91
2021/06/16 01:17:41;;;;;;;0.10;0.10;;;;;;;11.08;74.17;101391.91;5043976;28;20397;-91
2021/06/16 01:20:29;;;;;;;0.20;0.20;;;;;;;10.96;73.06;101383.94;5061721;28;20063;-92
2021/06/16 01:23:34;;;;;;;0.13;0.13;;;;;;;10.83;73.46;101362.66;5054378;28;20052;-92
2021/06/16 01:26:18;;;;;;;0.20;0.20;;;;;;;10.79;73.30;101356.09;5049621;28;20053;-92
2021/06/16 01:28:47;;;;;;;0.10;0.10;;;;;;;10.63;73.45;101338.84;5049659;28;20056;-92
2021/06/16 01:32:05;;;;;;;0.10;0.10;;;;;;;10.88;73.04;101389.88;5052553;28;20052;-92
2021/06/16 01:34:35;;;;;;;0.20;0.20;;;;;;;10.83;73.84;101368.09;5044509;28;20056;-92
2021/06/16 01:37:05;;;;;;;0.10;0.10;;;;;;;10.68;73.64;101369.63;5061239;28;20051;-92
2021/06/16 01:39:45;;;;;;;0.10;0.10;;;;;;;10.54;74.10;101347.50;5060694;28;20056;-89
2021/06/16 01:42:30;;;;;;;0.10;0.10;;;;;;;10.76;73.70;101383.81;5039041;28;20036;-89
2021/06/16 01:45:00;;;;;;;0.55;0.20;;;;;;;10.46;74.33;101339.03;5052065;28;20061;-90
2021/06/16 01:47:55;;;;;;;0.20;0.20;;;;;;;10.83;74.09;101392.59;5035446;28;20425;-90
2021/06/16 01:50:54;;;;;;;0.10;0.10;;;;;;;10.83;74.08;101389.88;5052032;28;20546;-91
2021/06/16 01:53:26;;;;;;;0.20;0.20;;;;;;;10.77;74.09;101388.19;5046438;28;20048;-90
2021/06/16 01:56:00;;;;;;;0.20;0.20;;;;;;;10.61;74.20;101374.50;5032481;28;20053;-90
2021/06/16 01:58:46;;;;;;;0.10;0.10;;;;;;;10.43;73.32;101336.84;5054120;28;20059;-90
2021/06/16 02:01:19;;;;;;;0.20;0.20;;;;;;;10.79;73.58;101388.75;5039705;28;20049;-89
2021/06/16 02:04:00;;;;;;;0.10;0.10;;;;;;;10.78;73.29;101387.13;5050784;28;20053;-89
2021/06/16 02:07:19;;;;;;;0.10;0.10;;;;;;;10.79;73.84;101391.47;5051499;28;20048;-90
2021/06/16 02:09:55;;;;;;;0.20;0.20;;;;;;;10.66;73.90;101376.41;5040723;28;20056;-90
2021/06/16 02:12:24;;;;;;;0.13;0.13;;;;;;;10.71;73.73;101379.97;5046004;28;20045;-91
2021/06/16 02:14:57;;;;;;;0.20;0.20;;;;;;;10.33;73.58;101315.75;5046720;28;20056;-91
2021/06/16 02:17:30;;;;;;;0.10;0.10;;;;;;;10.35;73.36;101322.63;5048387;28;20386;-89
2021/06/16 02:20:29;;;;;;;0.10;0.10;;;;;;;10.59;74.22;101379.38;5061274;28;20053;-88
2021/06/16 02:23:24;;;;;;;0.10;0.10;;;;;;;10.63;74.02;101382.41;5048434;28;20046;-89
2021/06/16 02:25:52;;;;;;;0.10;0.10;;;;;;;10.49;73.44;101362.97;5034994;28;20410;-90
2021/06/16 02:28:21;;;;;;;0.10;0.10;;;;;;;10.62;73.34;101383.47;5041966;28;20060;-91
2021/06/16 02:31:18;;;;;;;0.10;0.10;;;;;;;10.59;74.50;101382.09;5051769;28;20064;-90
2021/06/16 02:33:50;;;;;;;0.10;0.10;;;;;;;10.17;74.57;101332.00;5060420;28;20048;-90
2021/06/16 02:36:20;;;;;;;0.10;0.10;;;;;;;10.35;73.83;101359.91;5044306;28;20042;-91
2021/06/16 02:38:53;;;;;;;0.20;0.20;;;;;;;10.18;74.09;101330.09;5036772;28;20049;-89
2021/06/16 02:41:24;;;;;;;0.13;0.13;;;;;;;10.24;74.09;101358.16;5047356;28;20061;-90
2021/06/16 02:43:59;;;;;;;0.10;0.10;;;;;;;10.07;74.25;101336.53;5038825;28;20056;-90
2021/06/16 02:46:30;;;;;;;0.15;0.15;;;;;;;10.26;73.93;101356.00;5064566;28;20053;-90
2021/06/16 02:49:25;;;;;;;0.20;0.20;;;;;;;10.14;74.66;101343.41;5067971;28;20056;-89
2021/06/16 02:51:54;;;;;;;0.10;0.10;;;;;;;10.09;74.62;101337.09;5057333;28;20756;-90
2021/06/16 02:54:23;;;;;;;0.10;0.10;;;;;;;10.12;73.05;101347.44;5048865;28;20080;-90
2021/06/16 02:57:20;;;;;;;0.10;0.10;;;;;;;10.41;74.93;101382.53;5053585;28;20044;-91
2021/06/16 02:59:50;;;;;;;0.10;0.10;;;;;;;10.21;74.81;101360.31;5056806;28;20048;-91
2021/06/16 03:02:23;;;;;;;0.10;0.10;;;;;;;9.90;75.08;101323.06;5054858;28;20043;-90
2021/06/16 03:04:52;;;;;;;0.13;0.13;;;;;;;10.12;73.96;101361.06;5051449;28;20485;-90
2021/06/16 03:08:11;;;;;;;0.10;0.10;;;;;;;10.52;72.86;101384.22;5052446;28;20040;-90
2021/06/16 03:15:32;;;;;;;0.10;0.10;;;;;;;10.62;73.21;101387.03;5059345;28;20059;-89
2021/06/16 03:18:09;;;;;;;0.10;0.10;;;;;;;10.22;74.30;101331.22;5038456;28;20056;-89
2021/06/16 03:20:44;;;;;;;0.10;0.10;;;;;;;10.19;74.75;101323.56;5049730;28;20045;-90
2021/06/16 03:23:17;;;;;;;0.10;0.10;;;;;;;10.45;74.85;101361.88;5045944;28;20052;-91
2021/06/16 03:25:47;;;;;;;0.10;0.10;;;;;;;10.42;75.28;101368.66;5043689;28;20053;-89
2021/06/16 03:28:22;;;;;;;0.20;0.20;;;;;;;10.08;75.02;101333.56;5035105;28;20053;-90
2021/06/16 03:31:19;;;;;;;0.10;0.10;;;;;;;10.40;75.34;101372.72;5044109;28;20049;-90
2021/06/16 03:33:49;;;;;;;0.10;0.10;;;;;;;10.10;75.14;101349.63;5038039;28;20057;-90
2021/06/16 03:36:20;;;;;;;0.10;0.10;;;;;;;10.31;74.74;101367.72;5048384;28;20053;-90
2021/06/16 03:38:50;;;;;;;0.10;0.10;;;;;;;10.19;74.40;101346.16;5060048;28;20049;-89
2021/06/16 03:41:24;;;;;;;0.10;0.10;;;;;;;10.36;74.43;101367.00;5068438;28;20052;-89
2021/06/16 03:43:54;;;;;;;0.20;0.20;;;;;;;10.19;75.02;101343.44;5054688;28;20053;-91
2021/06/16 03:46:24;;;;;;;0.10;0.10;;;;;;;10.41;75.61;101375.16;5057244;28;20056;-91
2021/06/16 03:49:00;;;;;;;0.20;0.20;;;;;;;10.14;73.84;101318.13;5048539;28;20045;-89
2021/06/16 03:51:42;;;;;;;0.20;0.20;;;;;;;10.29;74.87;101336.41;5062208;28;20041;-90
2021/06/16 03:54:15;;;;;;;0.10;0.10;;;;;;;10.49;74.33;101374.69;5036827;28;20131;-90
2021/06/16 03:56:45;;;;;;;0.20;0.20;;;;;;;10.42;74.49;101360.50;5044267;28;20052;-89
2021/06/16 03:59:15;;;;;;;0.10;0.10;;;;;;;10.53;74.95;101378.50;5069144;28;20052;-90
2021/06/16 04:01:52;;;;;;;0.20;0.20;;;;;;;10.50;74.15;101359.19;5044965;28;20056;-89
2021/06/16 04:04:25;;;;;;;0.20;0.20;;;;;;;10.18;74.02;101305.63;5059121;28;20052;-90
2021/06/16 04:06:54;;;;;;;0.15;0.15;;;;;;;10.47;74.51;101346.13;5048737;28;20084;-89
2021/06/16 04:09:23;;;;;;;0.13;0.13;;;;;;;10.59;74.71;101357.59;5058668;28;20053;-90
2021/06/16 04:11:53;;;;;;;0.10;0.10;;;;;;;10.46;74.75;101342.56;5073991;28;20060;-89
2021/06/16 04:14:33;;;;;;;0.10;0.10;;;;;;;10.47;74.29;101338.75;5043693;28;20049;-90
2021/06/16 04:17:32;;;;;;;0.20;0.20;;;;;;;10.77;74.18;101372.69;5043488;28;20049;-89
2021/06/16 04:20:15;;;;;;;0.20;0.20;;;;;;;10.62;74.60;101353.53;5046842;28;20046;-90
2021/06/16 04:22:47;;;;;;;0.10;0.10;;;;;;;10.56;73.80;101330.91;5049163;28;20060;-91
2021/06/16 04:25:15;;;;;;;0.20;0.20;;;;;;;10.57;74.41;101318.13;5041349;28;20513;-91
2021/06/16 04:27:44;;;;;;;0.10;0.10;;;;;;;10.51;75.10;101311.84;5049859;28;20529;-89
2021/06/16 04:30:14;;;;;;;0.10;0.10;;;;;;;10.87;73.90;101366.47;5050568;28;20048;-89
2021/06/16 04:32:44;;;;;;;0.10;0.10;;;;;;;10.62;73.72;101327.16;5055226;28;20525;-89
2021/06/16 04:35:20;;;;;;;0.20;0.20;;;;;;;10.80;73.50;101334.03;5061266;28;20064;-91
2021/06/16 04:37:54;;;;;;;0.20;0.20;;;;;;;10.68;73.45;101308.94;5055941;28;20037;-90
2021/06/16 04:40:25;;;;;;;0.10;0.10;;;;;;;11.14;73.96;101369.03;5047093;28;20485;-89
2021/06/16 04:42:58;;;;;;;0.10;0.10;;;;;;;10.82;74.49;101317.44;5050392;28;20041;-90
2021/06/16 04:46:16;;;;;;;0.20;0.20;;;;;;;11.17;74.08;101370.41;5042426;28;20076;-90
2021/06/16 04:49:12;;;;;;;0.20;0.20;;;;;;;11.27;73.67;101375.91;5039259;28;21441;-91
2021/06/16 04:51:43;;;;;;;0.10;0.10;;;;;;;11.10;74.23;101346.13;5040884;28;20049;-91
2021/06/16 04:54:16;;;;;;;0.10;0.10;;;;;;;11.13;74.00;101339.31;5039698;28;20045;-91
2021/06/16 04:56:45;;;;;;;0.10;0.10;;;;;;;11.47;74.34;101382.50;5044542;28;20501;-90
2021/06/16 04:59:13;;;;;;;0.10;0.10;;;;;;;11.53;73.51;101378.69;5057327;28;20036;-91
2021/06/16 05:01:47;;;;;;;0.10;0.10;;;;;;;11.53;73.95;101376.78;5046600;28;20416;-90
2021/06/16 05:04:20;;;;;;;0.10;0.10;;;;;;;11.61;73.99;101377.34;5043181;28;20049;-90
2021/06/16 05:07:47;;;;;;;0.10;0.10;;;;;;;11.85;73.86;101373.03;5037767;28;20620;-90
2021/06/16 05:10:17;;;;;;;0.20;0.20;;;;;;;13.29;69.35;101363.75;5037583;28;20382;-91
2021/06/16 05:12:46;;;;;;;0.20;0.20;;;;;;;15.85;61.45;101347.69;5049261;28;20052;-90
2021/06/16 05:16:05;;;;;;;0.20;0.20;;;;;;;17.97;55.81;101358.03;5041475;28;20049;-92
2021/06/16 05:18:36;;;;;;;0.20;0.20;;;;;;;19.07;51.29;101317.03;5047314;28;20053;-91
2021/06/16 05:21:56;;;;;;;0.20;0.20;;;;;;;20.23;49.59;101345.06;5052539;28;20504;-92
2021/06/16 05:24:25;;;;;;;0.30;0.30;;;;;;;20.09;48.64;101333.41;5039650;28;20041;-92
2021/06/16 05:26:54;;;;;;;0.20;0.20;;;;;;;20.57;46.22;101312.91;5052280;28;20072;-90
2021/06/16 05:29:28;;;;;;;0.20;0.20;;;;;;;21.39;45.84;101318.13;5043882;28;20053;-92
2021/06/16 05:31:56;;;;;;;0.20;0.20;;;;;;;21.67;44.72;101294.63;5046039;28;20525;-91
2021/06/16 05:34:24;;;;;;;0.20;0.20;;;;;;;21.50;45.29;101315.75;5039605;28;20053;-91
2021/06/16 05:36:58;;;;;;;0.20;0.20;;;;;;;20.68;46.98;101332.75;5043953;28;20061;-90
2021/06/16 05:39:26;;;;;;;0.10;0.10;;;;;;;21.38;42.49;101327.56;5048083;28;20057;-90
2021/06/16 05:41:56;;;;;;;0.20;0.20;;;;;;;21.70;44.18;101322.44;5040941;28;20049;-91
2021/06/16 05:44:24;;;;;;;0.10;0.10;;;;;;;21.38;44.92;101329.53;5049197;28;20048;-91
2021/06/16 05:46:52;;;;;;;0.10;0.10;;;;;;;20.29;48.32;101288.47;5042004;28;20060;-89
2021/06/16 05:49:37;;;;;;;0.10;0.10;;;;;;;18.93;52.56;101313.59;5057865;28;20057;-91
2021/06/16 05:52:07;;;;;;;0.10;0.10;;;;;;;19.05;51.40;101326.75;5040473;28;20560;-91
2021/06/16 05:54:37;;;;;;;0.10;0.10;;;;;;;17.97;53.50;101294.72;5045267;28;20088;-94
2021/06/16 05:57:12;;;;;;;0.10;0.10;;;;;;;18.13;54.56;101311.63;5036377;28;20049;-89
2021/06/16 05:59:40;;;;;;;0.10;0.10;;;;;;;17.34;54.87;101319.31;5049333;28;20044;-92
2021/06/16 06:02:10;;;;;;;0.10;0.10;;;;;;;17.42;56.05;101304.81;5045691;28;20394;-92
2021/06/16 06:05:47;;;;;;;0.10;0.10;;;;;;;17.66;56.08;101337.56;5046101;28;20053;-89
2021/06/16 06:08:22;;;;;;;0.10;0.10;;;;;;;16.66;57.76;101319.88;5037884;28;20052;-91
2021/06/16 06:11:16;;;;;;;0.10;0.10;;;;;;;16.72;56.43;101337.06;5052572;28;20056;-92
2021/06/16 06:13:54;;;;;;;0.10;0.10;;;;;;;16.61;56.94;101284.28;5043984;28;20053;-90
2021/06/16 06:16:29;;;;;;;0.10;0.10;;;;;;;16.55;59.77;101298.41;5043322;28;20056;-92
2021/06/16 06:18:58;;;;;;;0.10;0.10;;;;;;;16.65;60.25;101332.00;5048897;28;20521;-90
2021/06/16 06:21:31;;;;;;;0.10;0.10;;;;;;;16.44;58.83;101306.03;5040837;28;20524;-93
2021/06/16 06:24:06;;;;;;;0.20;0.20;;;;;;;16.56;61.06;101324.75;5056343;28;20048;-92
2021/06/16 06:26:35;;;;;;;0.10;0.10;;;;;;;16.68;59.75;101308.56;5036364;28;20053;-91
2021/06/16 06:29:05;;;;;;;0.10;0.10;;;;;;;16.68;58.69;101292.09;5032738;28;20058;-91
2021/06/16 06:31:34;;;;;;;0.10;0.10;;;;;;;16.76;61.65;101282.31;5045807;28;20053;-91
2021/06/16 06:34:02;;;;;;;0.10;0.10;;;;;;;16.58;60.76;101260.13;5035289;28;20540;-91
2021/06/16 06:36:30;;;;;;;0.20;0.20;;;;;;;16.87;60.57;101275.47;5050260;28;20048;-92
2021/06/16 06:38:59;;;;;;;0.10;0.10;;;;;;;17.25;60.37;101321.97;5063309;28;20485;-91
2021/06/16 06:41:31;;;;;;;0.10;0.10;;;;;;;17.26;58.78;101312.63;5049612;28;20068;-88
2021/06/16 06:44:26;;;;;;;0.10;0.10;;;;;;;17.22;62.50;101314.34;5048612;28;20064;-89
2021/06/16 06:46:59;;;;;;;0.10;0.10;;;;;;;17.02;60.30;101265.31;5052409;28;20064;-89
2021/06/16 06:49:32;;;;;;;0.17;0.10;;;;;;;17.12;59.80;101290.66;5047092;28;20068;-91
2021/06/16 06:52:03;;;;;;;0.32;0.10;;;;;;;17.10;60.83;101273.63;5047744;28;20057;-91
2021/06/16 06:54:35;;;;;;;0.10;0.10;;;;;;;17.21;59.34;101267.88;5044753;28;20074;-89
2021/06/16 06:57:08;;;;;;;0.20;0.10;;;;;;;17.22;59.36;101283.28;5041450;28;20057;-90
2021/06/16 06:59:40;;;;;;;0.10;0.10;;;;;;;17.22;61.81;101255.75;5045357;28;20048;-88
2021/06/16 07:03:02;;;;;;;0.10;0.10;;;;;;;17.55;59.19;101299.56;5039990;28;20061;-88
2021/06/16 07:05:35;;;;;;;0.10;0.10;;;;;;;17.45;60.78;101268.41;5040941;28;20064;-93
2021/06/16 07:08:06;;;;;;;0.20;0.20;;;;;;;17.67;57.50;101278.59;5044973;28;20060;-91
2021/06/16 07:10:39;;;;;;;0.10;0.10;;;;;;;17.70;57.26;101263.41;5043921;28;20071;-90
2021/06/16 07:13:10;;;;;;;0.10;0.10;;;;;;;17.99;60.35;101284.19;5040347;28;20057;-88
2021/06/16 07:15:41;;;;;;;0.10;0.10;;;;;;;17.96;60.72;101257.28;5036183;28;20053;-89
2021/06/16 07:18:10;;;;;;;0.20;0.10;;;;;;;18.09;58.78;101247.28;5043505;28;20052;-93
2021/06/16 07:21:08;;;;;;;0.10;0.10;;;;;;;18.28;59.68;101293.88;5046165;28;20056;-89
2021/06/16 07:23:37;;;;;;;0.10;0.10;;;;;;;18.10;57.07;101248.91;5053221;28;20057;-90
2021/06/16 07:26:05;;;;;;;0.08;0.08;;;;;;;18.46;57.73;101290.09;5045396;28;20111;-92
2021/06/16 07:28:34;;;;;;;0.10;0.10;;;;;;;18.17;60.31;101241.84;5044839;28;20060;-91
2021/06/16 07:31:04;;;;;;;0.10;0.10;;;;;;;18.23;59.75;101244.44;5043224;28;20048;-88
2021/06/16 07:33:48;;;;;;;0.10;0.10;;;;;;;18.35;60.39;101230.84;5045652;28;20068;-92
2021/06/16 07:36:17;;;;;;;0.10;0.10;;;;;;;18.62;60.65;101265.63;5049450;28;20071;-92
2021/06/16 07:38:45;;;;;;;0.20;0.20;;;;;;;18.75;58.71;101265.84;5045460;28;20429;-88
2021/06/16 07:41:14;;;;;;;0.17;0.17;;;;;;;18.76;58.66;101265.50;5044293;28;20170;-93
2021/06/16 07:43:46;;;;;;;0.10;0.10;;;;;;;18.91;57.06;101286.34;5047124;28;20065;-88
2021/06/16 07:46:16;;;;;;;0.10;0.10;;;;;;;18.89;56.97;101285.03;5046808;28;20063;-88
2021/06/16 07:48:44;;;;;;;0.13;0.13;;;;;;;18.92;57.31;101257.63;5046267;28;20091;-88
2021/06/16 07:51:12;;;;;;;0.10;0.10;;;;;;;19.10;53.56;101286.03;5042359;28;20060;-87
2021/06/16 07:53:47;;;;;;;0.10;0.10;;;;;;;19.22;54.38;101279.88;5047264;28;20044;-92
2021/06/16 07:56:18;;;;;;;0.10;0.10;;;;;;;19.20;57.38;101269.16;5046933;28;20597;-88
2021/06/16 07:58:51;;;;;;;0.10;0.10;;;;;;;19.28;57.04;101239.13;5046321;28;20072;-85
2021/06/16 08:01:21;;;;;;;0.03;0.03;;;;;;;19.28;56.01;101241.88;5056910;28;20054;-88
2021/06/16 08:03:50;;;;;;;0.10;0.10;;;;;;;19.61;55.77;101271.72;5044015;28;20047;-86
2021/06/16 08:06:18;;;;;;;0.10;0.10;;;;;;;19.51;54.19;101237.00;5046326;28;20056;-91
2021/06/16 08:08:46;;;;;;;0.10;0.10;;;;;;;19.75;56.37;101250.28;5044243;28;20052;-90
2021/06/16 08:11:29;;;;;;;0.10;0.10;;;;;;;19.93;54.86;101253.84;5042799;28;20408;-92
2021/06/16 08:13:59;;;;;;;0.10;0.10;;;;;;;19.96;51.67;101255.94;5049748;28;20049;-88
2021/06/16 08:16:36;;;;;;;0.20;0.20;;;;;;;19.87;55.51;101244.91;5049888;28;20044;-89
2021/06/16 08:19:05;;;;;;;0.10;0.10;;;;;;;19.94;51.23;101263.75;5043866;28;20052;-92
2021/06/16 08:21:34;;;;;;;0.10;0.10;;;;;;;19.85;50.68;101235.34;5040550;28;20061;-89
2021/06/16 08:24:04;;;;;;;0.10;0.10;;;;;;;19.91;53.91;101233.19;5042746;28;20888;-91
2021/06/16 08:26:36;;;;;;;0.10;0.10;;;;;;;20.05;54.35;101250.38;5048372;28;20061;-88
2021/06/16 08:29:04;;;;;;;0.10;0.10;;;;;;;20.08;55.18;101230.38;5041466;28;20437;-91
2021/06/16 08:31:36;;;;;;;0.13;0.13;;;;;;;19.99;49.70;101204.75;5044790;28;20061;-88
2021/06/16 08:34:05;;;;;;;0.10;0.10;;;;;;;19.87;53.92;101178.63;5041759;28;20053;-88
2021/06/16 08:36:35;;;;;;;0.10;0.10;;;;;;;20.12;54.84;101202.88;5042781;28;20052;-88
2021/06/16 08:39:06;;;;;;;0.15;0.10;;;;;;;20.27;52.21;101218.09;5042672;28;20068;-89
2021/06/16 08:41:35;;;;;;;0.10;0.10;;;;;;;20.41;51.21;101231.69;5043372;28;20040;-91
2021/06/16 08:44:32;;;;;;;0.20;0.20;;;;;;;20.64;52.63;101234.97;5038280;28;20060;-91
2021/06/16 08:47:04;;;;;;;0.10;0.10;;;;;;;20.56;51.75;101215.34;5043437;28;20049;-91
2021/06/16 08:49:33;;;;;;;0.10;0.10;;;;;;;20.75;50.88;101216.06;5041987;28;20068;-90
2021/06/16 08:52:01;;;;;;;0.10;0.10;;;;;;;20.55;49.55;101165.91;5042676;28;20571;-87
2021/06/16 08:54:57;;;;;;;0.10;0.10;;;;;;;21.14;51.98;101220.28;5046420;28;20060;-90
2021/06/16 08:57:25;;;;;;;0.10;0.10;;;;;;;21.08;49.60;101220.84;5044749;28;20049;-89
2021/06/16 09:00:44;;;;;;;0.10;0.10;;;;;;;21.33;48.99;101230.06;5046686;28;20093;-89
2021/06/16 09:03:16;;;;;;;0.10;0.10;;;;;;;20.76;48.02;101156.84;5057698;28;21299;-89
2021/06/16 09:05:45;;;;;;;0.10;0.10;;;;;;;20.84;47.01;101164.22;5044696;28;20057;-89
2021/06/16 09:08:19;;;;;;;0.10;0.10;;;;;;;21.10;45.02;101188.94;5041162;28;20430;-89
2021/06/16 09:10:54;;;;;;;0.10;0.10;;;;;;;20.92;48.51;101199.31;5042225;28;20068;-88
2021/06/16 09:13:27;;;;;;;0.10;0.10;;;;;;;20.84;49.52;101176.13;5040883;28;20083;-87
2021/06/16 09:15:57;;;;;;;0.10;0.10;;;;;;;21.08;52.58;101165.50;5050478;28;20060;-89
2021/06/16 09:18:43;;;;;;;0.10;0.10;;;;;;;21.32;50.92;101196.06;5062878;28;20052;-88
2021/06/16 09:21:32;;;;;;;0.10;0.10;;;;;;;21.62;50.72;101212.53;5047384;28;20091;-88
2021/06/16 09:24:04;;;;;;;0.10;0.10;;;;;;;21.25;48.11;101129.34;5044315;28;20489;-91
2021/06/16 09:26:34;;;;;;;0.10;0.10;;;;;;;21.79;47.66;101194.09;5062206;28;20059;-89
2021/06/16 09:29:07;;;;;;;0.10;0.10;;;;;;;21.85;49.63;101176.13;5045505;28;20060;-88
2021/06/16 09:31:50;;;;;;;0.10;0.10;;;;;;;21.99;50.93;101184.91;5045428;28;20071;-91
2021/06/16 09:34:22;;;;;;;0.10;0.10;;;;;;;22.04;50.30;101187.44;5047179;28;20063;-90
2021/06/16 09:37:16;;;;;;;0.10;0.10;;;;;;;22.05;49.02;101197.38;5042425;28;20048;-88
2021/06/16 09:40:00;;;;;;;0.10;0.10;;;;;;;21.83;48.85;101154.28;5045882;28;20053;-90
2021/06/16 09:42:29;;;;;;;0.10;0.10;;;;;;;21.86;48.89;101128.69;5047494;28;20056;-90
2021/06/16 09:45:27;;;;;;;0.10;0.10;;;;;;;22.51;48.76;101175.09;5040688;28;20872;-94
2021/06/16 09:48:29;;;;;;;0.20;0.20;;;;;;;22.50;48.11;101180.97;5043263;28;20059;-91
2021/06/16 09:51:17;;;;;;;0.10;0.10;;;;;;;22.56;49.99;101168.47;5045686;28;20061;-88
2021/06/16 09:54:11;;;;;;;0.10;0.10;;;;;;;22.46;48.34;101141.25;5050893;28;20067;-90
2021/06/16 09:56:42;;;;;;;0.10;0.10;;;;;;;22.47;48.49;101128.97;5043515;28;20045;-90
2021/06/16 09:59:35;;;;;;;0.10;0.10;;;;;;;22.68;47.85;101154.56;5041618;28;20047;-90
2021/06/16 10:02:04;;;;;;;0.10;0.10;;;;;;;22.20;44.49;101092.50;5046717;28;20052;-91
2021/06/16 10:04:40;;;;;;;0.10;0.10;;;;;;;22.67;47.49;101132.75;5047161;28;20064;-87
2021/06/16 10:07:29;;;;;;;0.10;0.10;;;;;;;22.79;47.18;101149.34;5045178;28;20052;-89
2021/06/16 10:09:59;;;;;;;0.10;0.10;;;;;;;22.85;47.12;101134.06;5042983;28;20052;-89
2021/06/16 10:12:34;;;;;;;0.10;0.10;;;;;;;22.78;47.42;101139.41;5043890;28;20061;-90
2021/06/16 10:15:05;;;;;;;0.10;0.10;;;;;;;23.07;46.93;101165.19;5040490;28;20072;-90
2021/06/16 10:17:35;;;;;;;0.10;0.10;;;;;;;23.24;47.33;101164.09;5041868;28;20056;-89
2021/06/16 10:20:10;;;;;;;0.10;0.10;;;;;;;22.91;45.17;101138.19;5041006;28;20057;-88
2021/06/16 10:22:40;;;;;;;0.10;0.10;;;;;;;22.59;46.84;101079.00;5042772;28;20053;-89
2021/06/16 10:25:09;;;;;;;0.10;0.10;;;;;;;23.05;46.85;101125.91;5041433;28;20782;-88
2021/06/16 10:27:55;;;;;;;0.10;0.10;;;;;;;23.20;45.07;101121.53;5041849;28;20068;-90
2021/06/16 10:30:27;;;;;;;0.10;0.10;;;;;;;23.29;47.55;101132.50;5041806;28;20060;-88
2021/06/16 10:32:56;;;;;;;0.10;0.10;;;;;;;23.30;45.41;101114.66;5040743;28;20413;-89
2021/06/16 10:35:35;;;;;;;0.10;0.10;;;;;;;23.40;44.05;101116.94;5038855;28;20056;-87
2021/06/16 10:38:14;;;;;;;0.10;0.10;;;;;;;23.20;45.28;101054.91;5042196;28;20045;-90
2021/06/16 10:40:48;;;;;;;0.10;0.10;;;;;;;23.55;46.55;101104.22;5044114;28;20044;-87
2021/06/16 10:43:24;;;;;;;0.10;0.10;;;;;;;23.53;46.05;101110.13;5040799;28;20037;-89
2021/06/16 10:45:57;;;;;;;0.10;0.10;;;;;;;23.51;45.51;101108.88;5036882;28;21402;-87
2021/06/16 10:49:01;;;;;;;0.10;0.10;;;;;;;23.94;42.12;101141.31;5060024;28;20045;-92
2021/06/16 10:51:34;;;;;;;0.10;0.10;;;;;;;23.44;44.04;101104.72;5029627;28;20061;-89
2021/06/16 10:54:24;;;;;;;0.10;0.10;;;;;;;23.62;47.44;101104.38;5046191;28;20056;-89
2021/06/16 10:57:09;;;;;;;0.10;0.10;;;;;;;23.94;44.84;101140.50;5044389;28;20059;-88
2021/06/16 11:00:14;;;;;;;0.10;0.10;;;;;;;23.94;45.76;101124.63;5044977;28;20079;-91
2021/06/16 11:03:06;;;;;;;0.10;0.10;;;;;;;23.92;43.56;101113.09;5041093;28;20053;-90
2021/06/16 11:05:40;;;;;;;0.10;0.10;;;;;;;23.78;44.89;101079.34;5054494;28;20045;-90
2021/06/16 11:08:14;;;;;;;0.10;0.10;;;;;;;23.96;41.34;101090.94;5053477;28;20053;-91
2021/06/16 11:10:55;;;;;;;0.10;0.10;;;;;;;24.03;43.24;101121.69;5050282;28;21222;-87
2021/06/16 11:13:43;;;;;;;0.10;0.10;;;;;;;23.80;44.11;101087.34;5048325;28;20397;-91
2021/06/16 11:16:45;;;;;;;0.10;0.10;;;;;;;24.03;47.47;101095.84;5049876;28;20060;-90
2021/06/16 11:19:41;;;;;;;0.10;0.10;;;;;;;24.24;45.56;101106.66;5047323;28;20064;-90
2021/06/16 11:22:36;;;;;;;0.10;0.10;;;;;;;24.09;41.24;101113.88;5062889;28;20076;-90
2021/06/16 11:25:13;;;;;;;0.10;0.10;;;;;;;23.70;43.90;101092.28;5051040;28;20049;-89
2021/06/16 11:28:02;;;;;;;0.13;0.13;;;;;;;23.74;42.00;101090.41;5046250;28;20052;-91
2021/06/16 11:30:34;;;;;;;0.10;0.10;;;;;;;23.97;44.75;101089.75;5043054;28;20064;-91
2021/06/16 11:33:27;;;;;;;0.10;0.10;;;;;;;24.31;42.69;101109.59;5042990;28;20056;-90
2021/06/16 11:36:00;;;;;;;0.10;0.10;;;;;;;24.20;47.36;101052.94;5047627;28;20472;-91
2021/06/16 11:38:32;;;;;;;0.20;0.20;;;;;;;24.49;42.32;101096.06;5048321;28;20045;-91
2021/06/16 11:41:05;;;;;;;0.20;0.20;;;;;;;24.45;42.59;101059.00;5039991;28;20049;-87
2021/06/16 11:43:37;;;;;;;0.10;0.10;;;;;;;24.73;43.17;101103.31;5045977;28;21159;-90
2021/06/16 11:46:15;;;;;;;0.10;0.10;;;;;;;24.64;40.62;101069.38;5044672;28;20059;-89
2021/06/16 11:48:47;;;;;;;0.10;0.10;;;;;;;24.95;42.04;101068.38;5051205;28;20064;-90
2021/06/16 11:51:32;;;;;;;0.10;0.10;;;;;;;24.78;44.27;101061.28;5050731;28;20072;-89
2021/06/16 11:54:21;;;;;;;0.10;0.10;;;;;;;24.80;42.93;101038.66;5046713;28;20060;-89
2021/06/16 11:56:54;;;;;;;0.10;0.10;;;;;;;24.74;43.91;101045.72;5045845;28;20059;-90
2021/06/16 11:59:42;;;;;;;0.10;0.10;;;;;;;25.10;41.58;101063.06;5050819;28;20060;-91
2021/06/16 12:02:18;;;;;;;0.10;0.10;;;;;;;25.18;41.99;101064.00;5047192;28;20060;-89
2021/06/16 12:04:50;;;;;;;0.10;0.10;;;;;;;24.89;40.97;101044.78;5047365;28;20049;-89
2021/06/16 12:07:50;;;;;;;0.10;0.10;;;;;;;24.96;41.13;101056.06;5050215;28;20060;-89
2021/06/16 12:10:25;;;;;;;0.10;0.10;;;;;;;25.19;44.65;101052.50;5049329;28;20060;-90
2021/06/16 12:12:55;;;;;;;0.10;0.10;;;;;;;24.72;39.78;101004.34;5047264;28;20063;-88
2021/06/16 12:15:27;;;;;;;0.10;0.10;;;;;;;25.22;42.04;101046.19;5045815;28;20055;-89
2021/06/16 12:17:57;;;;;;;0.10;0.10;;;;;;;25.39;42.98;101050.47;5047143;28;20060;-89
2021/06/16 12:20:27;;;;;;;0.10;0.10;;;;;;;25.22;41.19;101007.19;5055295;28;20760;-91
2021/06/16 12:22:55;;;;;;;0.10;0.10;;;;;;;25.03;40.00;100980.22;5043390;28;20064;-89